createdAt,value
2022-08-03T00:02:34.892Z,15.73
2022-08-03T00:05:38.346Z,10.85
2022-08-03T00:11:44.204Z,11.82
2022-08-03T00:14:47.226Z,9.43
2022-08-03T00:17:53.594Z,11.55
2022-08-03T00:20:57.112Z,12.07
2022-08-03T00:24:00.728Z,14.43
2022-08-03T00:27:03.780Z,11.85
2022-08-03T00:30:07.682Z,11.75
2022-08-03T00:33:11.398Z,20.70
2022-08-03T00:36:14.399Z,13.55
2022-08-03T00:42:21.153Z,13.25
2022-08-03T00:45:26.149Z,13.52
2022-08-03T00:48:33.352Z,10.75
2022-08-03T00:51:36.924Z,10.80
2022-08-03T00:54:40.724Z,11.98
2022-08-03T00:57:44.416Z,9.38
2022-08-03T01:00:47.492Z,19.75
2022-08-03T01:03:50.511Z,13.77
2022-08-03T01:07:14.620Z,14.07
2022-08-03T01:10:23.665Z,13.75
2022-08-03T01:14:04.519Z,11.95
2022-08-03T01:17:14.089Z,13.43
2022-08-03T01:20:19.102Z,9.02
2022-08-03T01:23:47.920Z,9.30
2022-08-03T01:27:06.643Z,13.75
2022-08-03T01:30:12.591Z,14.70
2022-08-03T01:33:27.290Z,11.00
2022-08-03T01:36:37.168Z,19.27
2022-08-03T01:39:41.798Z,13.82
2022-08-03T01:42:47.147Z,9.68
2022-08-03T01:45:50.600Z,10.50
2022-08-03T01:48:54.570Z,12.53
2022-08-03T01:52:04.379Z,11.98
2022-08-03T01:55:10.067Z,11.20
2022-08-03T01:58:16.169Z,10.18
2022-08-03T02:01:23.626Z,10.32
2022-08-03T02:04:28.646Z,11.55
2022-08-03T02:07:35.281Z,15.40
2022-08-03T02:10:41.325Z,11.63
2022-08-03T02:13:46.637Z,11.32
2022-08-03T02:16:50.368Z,12.73
2022-08-03T02:19:54.701Z,10.68
2022-08-03T02:26:05.502Z,13.95
2022-08-03T02:29:20.901Z,15.43
2022-08-03T02:32:47.783Z,10.93
2022-08-03T02:35:52.610Z,17.40
2022-08-03T02:38:59.791Z,11.88
2022-08-03T02:42:03.463Z,11.55
2022-08-03T02:45:13.250Z,11.25
2022-08-03T02:48:21.062Z,13.35
2022-08-03T02:51:24.700Z,11.48
2022-08-03T02:54:29.174Z,11.55
2022-08-03T02:57:35.731Z,8.23
2022-08-03T03:00:39.918Z,11.75
2022-08-03T03:06:49.648Z,10.27
2022-08-03T03:09:53.483Z,11.88
2022-08-03T03:12:58.739Z,11.32
2022-08-03T03:16:05.359Z,11.65
2022-08-03T03:19:10.036Z,11.63
2022-08-03T03:22:15.439Z,9.52
2022-08-03T03:25:20.139Z,8.18
2022-08-03T03:28:26.060Z,15.98
2022-08-03T03:31:29.393Z,13.13
2022-08-03T03:34:32.759Z,11.20
2022-08-03T03:37:36.834Z,15.02
2022-08-03T03:40:40.141Z,12.98
2022-08-03T03:43:44.296Z,9.57
2022-08-03T03:49:52.480Z,8.18
2022-08-03T03:52:55.516Z,11.10
2022-08-03T03:56:02.358Z,8.32
2022-08-03T03:59:06.310Z,10.02
2022-08-03T04:02:10.559Z,9.63
2022-08-03T04:05:33.198Z,7.65
2022-08-03T04:08:54.974Z,13.43
2022-08-03T04:12:01.687Z,9.50
2022-08-03T04:15:06.954Z,10.88
2022-08-03T04:18:14.509Z,7.57
2022-08-03T04:21:20.552Z,10.48
2022-08-03T04:24:26.461Z,10.23
2022-08-03T04:27:35.683Z,9.10
2022-08-03T04:30:40.862Z,9.15
2022-08-03T04:33:45.672Z,11.32
2022-08-03T04:36:55.530Z,7.97
2022-08-03T04:40:03.783Z,10.02
2022-08-03T04:43:08.734Z,11.30
2022-08-03T04:46:12.381Z,8.93
2022-08-03T04:49:15.610Z,8.02
2022-08-03T04:52:18.933Z,11.60
2022-08-03T04:55:29.246Z,9.43
2022-08-03T04:58:32.376Z,12.43
2022-08-03T05:01:35.465Z,9.15
2022-08-03T05:04:41.405Z,14.05
2022-08-03T05:07:45.272Z,11.88
2022-08-03T05:10:48.571Z,16.38
2022-08-03T05:13:51.642Z,9.33
2022-08-03T05:16:54.676Z,11.00
2022-08-03T05:19:58.181Z,7.93
2022-08-03T05:23:02.535Z,9.23
2022-08-03T05:26:05.659Z,10.93
2022-08-03T05:29:09.132Z,20.90
2022-08-03T05:32:12.187Z,13.60
2022-08-03T05:36:00.477Z,11.38
2022-08-03T05:38:38.266Z,13.10
2022-08-03T05:41:41.257Z,10.82
2022-08-03T05:44:44.379Z,8.73
2022-08-03T05:47:48.547Z,7.95
2022-08-03T05:53:54.325Z,9.05
2022-08-03T05:56:57.367Z,18.33
2022-08-03T06:00:00.666Z,14.63
2022-08-03T06:03:03.905Z,14.70
2022-08-03T06:06:07.047Z,13.50
2022-08-03T06:09:13.234Z,10.15
2022-08-03T06:12:16.580Z,11.40
2022-08-03T06:15:19.931Z,9.88
2022-08-03T06:18:24.644Z,9.13
2022-08-03T06:21:27.699Z,15.77
2022-08-03T06:24:31.001Z,14.45
2022-08-03T06:27:37.237Z,18.67
2022-08-03T06:30:41.332Z,16.38
2022-08-03T06:34:30.808Z,12.27
2022-08-03T06:37:07.373Z,17.00
2022-08-03T06:40:13.913Z,14.68
2022-08-03T06:43:17.194Z,10.15
2022-08-03T06:46:20.539Z,11.70
2022-08-03T06:49:23.745Z,12.33
2022-08-03T06:52:37.640Z,9.80
2022-08-03T06:55:42.466Z,10.68
2022-08-03T06:58:45.719Z,13.88
2022-08-03T07:01:48.768Z,12.10
2022-08-03T07:04:52.664Z,11.10
2022-08-03T07:07:57.509Z,9.70
2022-08-03T07:11:00.506Z,11.68
2022-08-03T07:14:03.617Z,16.27
2022-08-03T07:17:11.806Z,17.60
2022-08-03T07:20:15.830Z,14.50
2022-08-03T07:23:19.496Z,9.85
2022-08-03T07:26:22.564Z,10.40
2022-08-03T07:29:25.678Z,11.25
2022-08-03T07:32:32.003Z,10.98
2022-08-03T07:35:35.067Z,12.73
2022-08-03T07:38:38.215Z,8.05
2022-08-03T07:41:41.369Z,8.90
2022-08-03T07:44:45.017Z,9.13
2022-08-03T07:47:53.218Z,10.20
2022-08-03T07:50:56.943Z,11.95
2022-08-03T07:54:01.414Z,9.45
2022-08-03T07:57:04.586Z,7.28
2022-08-03T08:00:14.419Z,11.60
2022-08-03T08:03:17.691Z,8.93
2022-08-03T08:06:21.538Z,9.23
2022-08-03T08:09:24.657Z,6.75
2022-08-03T08:12:28.416Z,8.77
2022-08-03T08:15:32.337Z,7.32
2022-08-03T08:18:35.490Z,7.03
2022-08-03T08:21:53.063Z,10.50
2022-08-03T08:25:01.848Z,9.30
2022-08-03T08:28:31.872Z,7.72
2022-08-03T08:31:28.274Z,13.80
2022-08-03T08:34:31.325Z,18.70
2022-08-03T08:37:36.077Z,13.38
2022-08-03T08:40:39.120Z,11.52
2022-08-03T08:43:44.130Z,11.45
2022-08-03T08:46:48.398Z,11.38
2022-08-03T08:53:17.611Z,16.40
2022-08-03T08:56:28.445Z,13.35
2022-08-03T08:59:48.905Z,16.52
2022-08-03T09:02:52.712Z,13.52
2022-08-03T09:05:56.583Z,10.20
2022-08-03T09:08:59.761Z,10.90
2022-08-03T09:12:27.169Z,10.57
2022-08-03T09:15:34.260Z,12.73
2022-08-03T09:18:37.710Z,11.18
2022-08-03T09:21:40.847Z,13.37
2022-08-03T09:25:24.290Z,15.07
2022-08-03T09:29:00.435Z,15.02
2022-08-03T09:32:05.057Z,13.63
2022-08-03T09:35:09.471Z,11.07
2022-08-03T09:38:15.778Z,11.23
2022-08-03T09:41:20.397Z,13.70
2022-08-03T09:44:42.842Z,11.93
2022-08-03T09:47:45.901Z,17.52
2022-08-03T09:50:58.623Z,12.68
2022-08-03T09:54:31.259Z,11.80
2022-08-03T09:57:34.533Z,10.77
2022-08-03T10:01:01.619Z,10.30
2022-08-03T10:04:05.406Z,12.90
2022-08-03T10:07:11.142Z,13.25
2022-08-03T10:10:30.318Z,14.55
2022-08-03T10:13:35.230Z,16.23
2022-08-03T10:16:41.604Z,11.48
2022-08-03T10:19:45.193Z,13.30
2022-08-03T10:22:48.582Z,16.33
2022-08-03T10:25:58.811Z,15.18
2022-08-03T10:29:04.811Z,10.80
2022-08-03T10:32:41.539Z,13.35
2022-08-03T10:35:46.132Z,10.55
2022-08-03T10:38:57.651Z,8.85
2022-08-03T10:42:02.716Z,13.00
2022-08-03T10:45:10.810Z,16.50
2022-08-03T10:48:14.749Z,11.40
2022-08-03T10:51:18.176Z,11.07
2022-08-03T10:54:58.615Z,10.40
2022-08-03T10:58:07.940Z,13.30
2022-08-03T11:01:14.397Z,16.58
2022-08-03T11:04:22.288Z,12.50
2022-08-03T11:07:26.436Z,14.70
2022-08-03T11:13:36.544Z,9.57
2022-08-03T11:16:42.218Z,10.60
2022-08-03T11:19:57.926Z,14.48
2022-08-03T11:23:02.295Z,14.18
2022-08-03T11:26:12.132Z,16.25
2022-08-03T11:29:31.772Z,16.63
2022-08-03T11:32:46.551Z,26.73
2022-08-03T11:36:03.104Z,11.25
2022-08-03T11:39:17.203Z,11.50
2022-08-03T11:42:40.815Z,13.65
2022-08-03T11:46:02.811Z,15.65
2022-08-03T11:49:10.931Z,15.77
2022-08-03T11:52:15.785Z,12.70
2022-08-03T11:55:22.442Z,11.27
2022-08-03T11:59:16.989Z,12.32
2022-08-03T12:01:50.310Z,10.70
2022-08-03T12:04:55.095Z,14.23
2022-08-03T12:08:06.173Z,19.65
2022-08-03T12:11:13.529Z,14.80
2022-08-03T12:14:48.980Z,13.43
2022-08-03T12:17:43.751Z,12.93
2022-08-03T12:20:47.350Z,13.35
2022-08-03T12:23:51.185Z,12.90
2022-08-03T12:26:59.032Z,14.90
2022-08-03T12:30:04.412Z,14.23
2022-08-03T12:33:23.786Z,16.27
2022-08-03T12:36:29.311Z,20.35
2022-08-03T12:39:32.371Z,18.00
2022-08-03T12:42:37.216Z,31.77
2022-08-03T12:45:40.422Z,28.45
2022-08-03T12:49:11.759Z,15.68
2022-08-03T12:52:16.894Z,13.65
2022-08-03T12:55:24.047Z,16.40
2022-08-03T12:58:35.931Z,11.18
2022-08-03T13:01:49.151Z,10.48
2022-08-03T13:04:58.636Z,10.13
2022-08-03T13:08:01.807Z,8.40
2022-08-03T13:11:47.565Z,11.38
2022-08-03T13:14:49.533Z,11.88
2022-08-03T13:17:53.434Z,9.13
2022-08-03T13:20:56.504Z,12.32
2022-08-03T13:23:59.530Z,10.38
2022-08-03T13:28:03.922Z,12.25
2022-08-03T13:30:29.812Z,10.45
2022-08-03T13:33:33.741Z,10.82
2022-08-03T13:37:06.399Z,14.73
2022-08-03T13:40:02.769Z,12.70
2022-08-03T13:43:06.744Z,12.25
2022-08-03T13:46:09.743Z,11.93
2022-08-03T13:49:12.866Z,11.05
2022-08-03T13:52:16.488Z,10.52
2022-08-03T13:55:19.701Z,10.75
2022-08-03T13:58:22.855Z,11.45
2022-08-03T14:01:54.507Z,21.50
2022-08-03T14:04:49.786Z,19.52
2022-08-03T14:07:52.841Z,9.65
2022-08-03T14:11:01.284Z,8.48
2022-08-03T14:14:04.468Z,9.27
2022-08-03T14:17:07.507Z,8.60
2022-08-03T14:20:38.897Z,8.00
2022-08-03T14:23:40.486Z,7.53
2022-08-03T14:26:44.610Z,9.98
2022-08-03T14:29:47.553Z,9.10
2022-08-03T14:32:50.481Z,9.20
2022-08-03T14:35:54.076Z,8.95
2022-08-03T14:39:01.067Z,9.75
2022-08-03T14:42:04.607Z,8.50
2022-08-03T14:45:09.656Z,9.60
2022-08-03T14:50:32.161Z,12.40
2022-08-03T14:54:57.298Z,14.40
2022-08-03T14:58:03.174Z,9.48
2022-08-03T15:02:04.650Z,10.60
2022-08-03T15:04:31.009Z,12.48
2022-08-03T15:07:34.115Z,12.27
2022-08-03T15:10:40.555Z,10.85
2022-08-03T15:13:47.704Z,11.32
2022-08-03T15:16:51.203Z,12.10
2022-08-03T15:20:03.796Z,13.02
2022-08-03T15:23:11.968Z,12.32
2022-08-03T15:26:30.833Z,9.98
2022-08-03T15:30:04.715Z,11.43
2022-08-03T15:33:00.148Z,12.90
2022-08-03T15:36:03.655Z,14.75
2022-08-03T15:39:07.471Z,16.88
2022-08-03T15:42:10.561Z,9.32
2022-08-03T15:45:13.622Z,12.93
2022-08-03T15:48:21.071Z,10.75
2022-08-03T15:51:29.650Z,14.40
2022-08-03T15:54:32.656Z,8.20
2022-08-03T15:59:03.989Z,10.95
2022-08-03T16:00:59.717Z,9.10
2022-08-03T16:04:02.893Z,12.98
2022-08-03T16:10:19.275Z,13.82
2022-08-03T16:13:23.025Z,10.15
2022-08-03T16:16:46.026Z,10.43
2022-08-03T16:19:49.844Z,10.03
2022-08-03T16:22:52.988Z,10.60
2022-08-03T16:25:56.051Z,11.68
2022-08-03T16:28:59.057Z,11.68
2022-08-03T16:32:09.615Z,11.70
2022-08-03T16:35:19.167Z,11.65
2022-08-03T16:38:23.539Z,11.30
2022-08-03T16:41:27.026Z,8.37
2022-08-03T16:44:50.534Z,7.50
2022-08-03T16:48:01.622Z,9.10
2022-08-03T16:51:09.681Z,8.20
2022-08-03T16:54:14.268Z,10.93
2022-08-03T17:00:41.597Z,7.00
2022-08-03T17:04:02.222Z,8.00
2022-08-03T17:07:07.702Z,9.10
2022-08-03T17:10:13.535Z,5.80
2022-08-03T17:16:25.833Z,9.45
2022-08-03T17:19:32.275Z,9.68
2022-08-03T17:22:40.266Z,11.98
2022-08-03T17:26:01.994Z,7.72
2022-08-03T17:29:12.528Z,10.38
2022-08-03T17:32:21.698Z,7.75
2022-08-03T17:35:36.577Z,8.27
2022-08-03T17:38:42.573Z,8.20
2022-08-03T17:41:48.941Z,8.68
2022-08-03T17:44:54.315Z,7.53
2022-08-03T17:47:59.630Z,6.25
2022-08-03T17:51:17.293Z,9.93
2022-08-03T17:54:31.521Z,11.18
2022-08-03T17:58:02.025Z,8.23
2022-08-03T18:01:59.126Z,11.63
2022-08-03T18:05:16.244Z,16.80
2022-08-03T18:08:30.873Z,10.93
2022-08-03T18:11:39.024Z,9.00
2022-08-03T18:14:57.378Z,7.38
2022-08-03T18:18:10.837Z,9.00
2022-08-03T18:21:16.677Z,9.43
2022-08-03T18:24:21.565Z,8.30
2022-08-03T18:27:45.552Z,9.85
2022-08-03T18:34:33.091Z,10.60
2022-08-03T18:37:52.160Z,10.38
2022-08-03T18:40:56.205Z,8.68
2022-08-03T18:44:06.870Z,8.30
2022-08-03T18:47:50.473Z,8.85
2022-08-03T18:51:28.518Z,7.50
2022-08-03T18:55:01.169Z,8.45
2022-08-03T18:58:29.244Z,8.32
2022-08-03T19:01:59.708Z,5.75
2022-08-03T19:05:08.783Z,6.75
2022-08-03T19:08:28.686Z,5.75
2022-08-03T19:12:13.189Z,8.18
2022-08-03T19:15:10.522Z,10.60
2022-08-03T19:18:18.579Z,11.32
2022-08-03T19:21:23.521Z,11.38
2022-08-03T19:24:27.907Z,10.00
2022-08-03T19:27:32.296Z,5.68
2022-08-03T19:34:03.239Z,6.70
2022-08-03T19:37:10.868Z,6.38
2022-08-03T19:40:19.772Z,5.75
2022-08-03T19:46:44.760Z,5.63
2022-08-03T19:50:05.098Z,6.57
2022-08-03T19:53:14.001Z,8.45
2022-08-03T19:56:23.498Z,10.35
2022-08-03T19:59:28.147Z,4.82
2022-08-03T20:02:31.448Z,6.10
2022-08-03T20:05:44.863Z,4.97
2022-08-03T20:08:54.885Z,5.90
2022-08-03T20:11:58.328Z,4.07
2022-08-03T20:15:01.872Z,8.73
2022-08-03T20:18:04.930Z,13.23
2022-08-03T20:21:15.217Z,9.02
2022-08-03T20:24:27.396Z,14.23
2022-08-03T20:28:06.668Z,18.23
2022-08-03T20:30:59.755Z,15.48
2022-08-03T20:34:03.163Z,21.80
2022-08-03T20:37:06.255Z,24.50
2022-08-03T20:40:12.996Z,32.28
2022-08-03T20:43:19.865Z,22.13
2022-08-03T20:46:31.032Z,14.85
2022-08-03T20:49:45.759Z,23.67
2022-08-03T20:52:50.540Z,39.17
2022-08-03T20:56:02.303Z,24.98
2022-08-03T20:59:14.923Z,35.47
2022-08-03T21:02:19.736Z,28.02
2022-08-03T21:05:51.266Z,25.33
2022-08-03T21:09:05.662Z,26.02
2022-08-03T21:12:18.432Z,32.00
2022-08-03T21:13:02.301Z,6.32
2022-08-03T21:13:04.350Z,15.45
2022-08-03T21:16:03.015Z,34.38
2022-08-03T21:18:55.469Z,26.23
2022-08-03T21:21:59.619Z,25.52
2022-08-03T21:25:09.042Z,26.23
2022-08-03T21:28:13.454Z,24.65
2022-08-03T21:31:26.841Z,27.10
2022-08-03T21:34:31.010Z,19.80
2022-08-03T21:37:34.255Z,20.45
2022-08-03T21:40:37.678Z,15.05
2022-08-03T21:43:40.737Z,12.25
2022-08-03T21:46:44.764Z,13.02
2022-08-03T21:50:08.811Z,8.40
2022-08-03T21:53:15.236Z,12.38
2022-08-03T21:56:20.629Z,9.40
2022-08-03T21:59:24.293Z,9.98
2022-08-03T22:02:32.507Z,10.50
2022-08-03T22:05:43.495Z,8.52
2022-08-03T22:08:48.544Z,8.75
2022-08-03T22:11:56.631Z,7.82
2022-08-03T22:15:02.774Z,8.57
2022-08-03T22:18:06.224Z,9.80
2022-08-03T22:21:12.554Z,10.50
2022-08-03T22:24:19.796Z,10.80
2022-08-03T22:27:30.837Z,8.30
2022-08-03T22:30:34.300Z,8.23
2022-08-03T22:33:38.666Z,10.95
2022-08-03T22:36:42.366Z,6.45
2022-08-03T22:39:46.153Z,6.70
2022-08-03T22:42:52.719Z,6.10
2022-08-03T22:46:09.803Z,8.82
2022-08-03T22:49:16.052Z,6.70
2022-08-03T22:52:19.318Z,10.23
2022-08-03T22:55:24.942Z,7.35
2022-08-03T22:58:28.288Z,11.27
2022-08-03T23:01:37.980Z,8.05
2022-08-03T23:04:42.412Z,10.93
2022-08-03T23:07:46.229Z,9.23
2022-08-03T23:10:50.715Z,12.67
2022-08-03T23:13:56.119Z,7.30
2022-08-03T23:17:03.950Z,10.77
2022-08-03T23:20:09.467Z,11.18
2022-08-03T23:23:13.014Z,14.35
2022-08-03T23:26:17.908Z,13.68
2022-08-03T23:29:22.527Z,11.50
2022-08-03T23:36:29.004Z,8.75
2022-08-03T23:39:15.351Z,10.35
2022-08-03T23:42:20.836Z,10.15
2022-08-03T23:45:25.532Z,8.45
2022-08-03T23:48:28.912Z,9.57
2022-08-03T23:51:37.679Z,11.43
2022-08-03T23:55:08.335Z,25.67
2022-08-03T23:58:32.824Z,10.35
